Imperia, Italy

06:00 PM CEST del 31 Agosto 2016 (GMT +0200)
Via Capocaccia - Diano Marina | | Change Station

Alt. 28 ft 43.91 °N, 8.08 °E | Updated 8 minutes ago

Partly Cloudy
Parzialmente nuvoloso
84.0 °F
Sembra 88 °F
N
4.3
Vento Variabile Vento da Est

Oggi
Massima -- | Minima -- °F
--% Possibilità di precip.
Ieri
Massima -- | Minima -- °F
Precip. -- in
Pressione 30.06 in
Visibilità 6.2 miglia
Nuvole Alcuni 5000 ft
Indice di calore 88 °F
Punto di rugiada 67 °F
Umidità 61%
Piovosità Non disponibile.
Spessore del manto nevoso Non disponibile.
6:50 AM 8:04 PM
Luna calante, 1% visible
METAR LFMN 311530Z 22006KT 9999 FEW050TCU 28/17 Q1018 NOSIG
Pressione 30.06 in
Visibilità 6.2 miglia
Nuvole Alcuni 5000 ft
Indice di calore 88 °F
Punto di rugiada 67 °F
Umidità 61%
Piovosità Non disponibile.
Spessore del manto nevoso Non disponibile.
6:50 AM 8:04 PM
Luna calante, 1% visible
METAR LFMN 311530Z 22006KT 9999 FEW050TCU 28/17 Q1018 NOSIG

10-Day Weather Forecast

×

Almanac

Astronomia

Aug. 31, 2016 Alba Tramonto
Ora attuale
Crepuscolo civile
Crepuscolo nautico
Crepuscolo astronomico
Luna
Estensione della luce visibile
Lunghezza del giorno
Tomorrow will be .
, % of the Moon is Illuminated

Gli estremi di oggi

Massime Regione Minime Regione

Community

WunderPhotos

Upload Photos

1,936,098 foto caricate!

WunderBlog® & News

Nearby

Qualità dell'aria

  Qualità dell'aria Indice AQ Inquinante
Not available.

Profondità neve

Stazione Profondità Altitudine

Attività sismica

Città  Distanza Mag. Data & Ora
Minimo Magnitudo Mostrato è 2.5.

Temperature delle acque costiere

Località Temperatura

Stations

Stazioni meteo nelle vicinanze

Ubicazione della stazione Temp. Raffreddamento del vento Punto di rugiada Umidità Vento Precip. Alt. Aggiornato Tipo